Time;durP1;ratioP1;P1;durP2;ratioP2;P2;SDS_P1;SDS_P2;PMS_P1;PMS_P2;Temp;Humidity;BMP_temperature;BMP_pressure;BME280_temperature;BME280_humidity;BME280_pressure;Samples;Min_cycle;Max_cycle;Signal;HPM_P1;HPM_P2
2023/10/30 00:00:47;;;;;;;6.33;1.47;;;13.10;99.90;;;;;;4990772;28;20230;-64
2023/10/30 00:03:16;;;;;;;4.20;1.10;;;13.10;99.90;;;;;;4988674;28;20936;-64
2023/10/30 00:05:41;;;;;;;5.73;1.50;;;13.10;99.90;;;;;;4990684;28;20696;-63
2023/10/30 00:08:07;;;;;;;9.03;1.90;;;13.20;99.90;;;;;;4989672;28;20439;-64
2023/10/30 00:10:36;;;;;;;2.80;1.30;;;13.20;99.90;;;;;;4990777;28;20214;-63
2023/10/30 00:13:02;;;;;;;2.13;1.10;;;13.20;99.90;;;;;;4989924;28;20233;-64
2023/10/30 00:15:27;;;;;;;8.67;1.70;;;13.20;99.90;;;;;;4987851;28;20538;-63
2023/10/30 00:17:53;;;;;;;7.10;1.80;;;13.10;99.90;;;;;;4990956;28;20655;-64
2023/10/30 00:20:19;;;;;;;4.40;1.47;;;13.20;99.90;;;;;;4988778;28;20713;-64
2023/10/30 00:22:45;;;;;;;5.63;1.63;;;13.20;99.90;;;;;;4990577;28;20211;-63
2023/10/30 00:25:11;;;;;;;4.57;1.40;;;13.20;99.90;;;;;;4989073;28;20187;-62
2023/10/30 00:27:37;;;;;;;5.10;1.20;;;13.20;99.90;;;;;;4989931;28;20440;-64
2023/10/30 00:30:03;;;;;;;3.00;1.10;;;13.20;99.90;;;;;;4990175;28;20458;-64
2023/10/30 00:32:28;;;;;;;4.40;1.70;;;13.20;99.90;;;;;;4988968;28;20192;-64
2023/10/30 00:34:54;;;;;;;1.77;1.00;;;13.20;99.90;;;;;;4989538;28;20485;-63
2023/10/30 00:37:20;;;;;;;3.43;1.10;;;13.20;99.90;;;;;;4989133;28;20180;-63
2023/10/30 00:39:45;;;;;;;5.53;1.73;;;13.20;99.90;;;;;;4990549;28;20184;-64
2023/10/30 00:42:11;;;;;;;5.47;1.40;;;13.20;99.90;;;;;;4990111;28;20182;-63
2023/10/30 00:44:40;;;;;;;13.63;2.20;;;13.20;99.90;;;;;;4988563;28;20199;-64
2023/10/30 00:47:06;;;;;;;3.03;1.27;;;13.10;99.90;;;;;;4989786;28;20740;-63
2023/10/30 00:49:31;;;;;;;5.40;1.53;;;13.20;99.90;;;;;;4989003;28;20464;-63
2023/10/30 00:51:57;;;;;;;5.53;1.80;;;13.20;99.90;;;;;;4989640;28;20872;-64
2023/10/30 00:54:23;;;;;;;3.60;1.43;;;13.20;99.90;;;;;;4988575;28;20245;-64
2023/10/30 00:56:49;;;;;;;5.90;1.40;;;13.10;99.90;;;;;;4989217;28;21001;-64
2023/10/30 00:59:15;;;;;;;8.03;1.73;;;13.20;99.90;;;;;;4988865;28;20246;-63
2023/10/30 01:01:41;;;;;;;3.93;1.17;;;13.20;99.90;;;;;;4988887;28;20309;-63
2023/10/30 01:04:07;;;;;;;3.63;1.57;;;13.20;99.90;;;;;;4989068;28;20427;-64
2023/10/30 01:06:33;;;;;;;3.80;1.70;;;13.30;99.90;;;;;;4988965;28;20825;-63
2023/10/30 01:08:59;;;;;;;5.60;1.43;;;13.20;99.90;;;;;;4989334;28;21479;-63
2023/10/30 01:11:25;;;;;;;5.80;1.70;;;13.20;99.90;;;;;;4988307;28;20480;-63
2023/10/30 01:13:50;;;;;;;4.80;1.57;;;13.20;99.90;;;;;;4986589;28;20610;-64
2023/10/30 01:16:16;;;;;;;3.37;1.50;;;13.10;99.90;;;;;;4989630;28;20205;-63
2023/10/30 01:18:42;;;;;;;6.23;2.00;;;13.20;99.90;;;;;;4989273;28;20254;-63
2023/10/30 01:21:12;;;;;;;6.10;2.00;;;13.10;99.90;;;;;;4989294;28;20180;-64
2023/10/30 01:23:38;;;;;;;5.03;1.57;;;13.10;99.90;;;;;;4987643;28;20271;-63
2023/10/30 01:26:04;;;;;;;6.43;1.40;;;13.10;99.90;;;;;;4989508;28;20453;-63
2023/10/30 01:28:30;;;;;;;5.77;1.53;;;13.10;99.90;;;;;;4987808;28;21250;-63
2023/10/30 01:30:56;;;;;;;4.87;1.03;;;13.10;99.90;;;;;;4988738;28;20553;-64
2023/10/30 01:33:23;;;;;;;4.60;1.30;;;13.20;99.90;;;;;;4988143;28;20967;-63
2023/10/30 01:35:49;;;;;;;6.97;2.03;;;13.10;99.90;;;;;;4988401;28;20315;-63
2023/10/30 01:38:14;;;;;;;6.43;1.60;;;13.10;99.90;;;;;;4990123;28;20652;-63
2023/10/30 01:40:48;;;;;;;5.13;0.93;;;13.10;99.90;;;;;;4987758;28;20429;-64
2023/10/30 01:43:14;;;;;;;4.47;1.60;;;13.10;99.90;;;;;;5002901;28;20191;-64
2023/10/30 01:45:39;;;;;;;10.23;2.03;;;13.10;99.90;;;;;;4988121;28;20551;-64
2023/10/30 01:48:05;;;;;;;4.27;1.20;;;13.10;99.90;;;;;;4989474;28;20263;-64
2023/10/30 01:50:32;;;;;;;4.00;1.10;;;13.10;99.90;;;;;;4988395;28;20225;-63
2023/10/30 01:52:59;;;;;;;6.17;1.60;;;13.10;99.90;;;;;;4987604;28;20573;-63
2023/10/30 01:55:25;;;;;;;6.27;1.27;;;13.10;99.90;;;;;;4992053;28;20915;-64
2023/10/30 01:57:51;;;;;;;5.33;1.30;;;13.10;99.90;;;;;;4995002;28;20183;-63
2023/10/30 02:00:17;;;;;;;6.00;2.30;;;13.20;99.90;;;;;;4995412;28;20219;-64
2023/10/30 02:02:43;;;;;;;4.23;1.90;;;13.10;99.90;;;;;;4995506;28;20516;-63
2023/10/30 02:05:09;;;;;;;4.27;1.20;;;13.20;99.90;;;;;;4994145;28;20183;-63
2023/10/30 02:07:36;;;;;;;4.30;1.23;;;13.20;99.90;;;;;;4994123;28;20428;-64
2023/10/30 02:10:05;;;;;;;5.90;1.73;;;13.20;99.90;;;;;;4994838;28;20426;-63
2023/10/30 02:12:31;;;;;;;4.77;1.10;;;13.20;99.90;;;;;;4994291;28;20429;-64
2023/10/30 02:14:57;;;;;;;8.27;1.77;;;13.20;99.90;;;;;;4993068;28;20435;-63
2023/10/30 02:17:22;;;;;;;3.63;1.33;;;13.10;99.90;;;;;;4995246;28;20261;-64
2023/10/30 02:19:48;;;;;;;6.47;1.53;;;13.10;99.90;;;;;;4994601;28;20970;-63
2023/10/30 02:22:14;;;;;;;4.27;1.40;;;13.20;99.90;;;;;;4995483;28;20183;-64
2023/10/30 02:24:40;;;;;;;5.50;1.33;;;13.20;99.90;;;;;;4993291;28;20420;-63
2023/10/30 02:27:05;;;;;;;3.70;1.53;;;13.10;99.90;;;;;;4994384;28;20206;-63
2023/10/30 02:29:31;;;;;;;5.20;1.50;;;13.10;99.90;;;;;;4994865;28;20852;-64
2023/10/30 02:31:57;;;;;;;2.30;0.90;;;13.20;99.90;;;;;;4994984;28;20304;-63
2023/10/30 02:34:22;;;;;;;4.43;1.70;;;13.10;99.90;;;;;;4993847;28;20623;-64
2023/10/30 02:36:48;;;;;;;5.13;1.60;;;13.10;99.90;;;;;;4994246;28;20617;-63
2023/10/30 02:39:14;;;;;;;5.60;1.73;;;13.10;99.90;;;;;;4995441;28;20816;-64
2023/10/30 02:41:39;;;;;;;7.40;1.50;;;13.10;99.90;;;;;;4993734;28;20187;-64
2023/10/30 02:44:05;;;;;;;4.87;1.23;;;13.10;99.90;;;;;;4993029;28;20208;-63
2023/10/30 02:46:31;;;;;;;4.70;1.50;;;13.20;99.90;;;;;;4994596;28;20197;-64
2023/10/30 02:48:57;;;;;;;9.67;2.53;;;13.10;99.90;;;;;;4994526;28;20695;-63
2023/10/30 02:51:23;;;;;;;3.63;1.30;;;13.20;99.90;;;;;;4985505;28;20230;-63
2023/10/30 02:53:48;;;;;;;3.83;1.27;;;13.20;99.90;;;;;;4991860;28;20207;-63
2023/10/30 02:56:14;;;;;;;6.27;1.53;;;13.20;99.90;;;;;;4995315;28;20193;-64
2023/10/30 02:58:39;;;;;;;5.17;1.50;;;13.20;99.90;;;;;;4994165;28;20195;-64
2023/10/30 03:01:05;;;;;;;4.57;1.50;;;13.10;99.90;;;;;;4994889;28;20186;-63
2023/10/30 03:03:31;;;;;;;3.43;1.13;;;13.10;99.90;;;;;;4993951;28;20282;-64
2023/10/30 03:05:57;;;;;;;6.33;1.57;;;13.20;99.90;;;;;;4992567;28;20534;-64
2023/10/30 03:08:25;;;;;;;5.03;1.63;;;13.10;99.90;;;;;;4991548;28;20349;-64
2023/10/30 03:10:51;;;;;;;5.23;1.30;;;13.10;99.90;;;;;;4989484;28;20214;-64
2023/10/30 03:13:16;;;;;;;4.07;1.40;;;13.10;99.90;;;;;;4991239;28;20485;-63
2023/10/30 03:15:45;;;;;;;6.57;2.00;;;13.10;99.90;;;;;;5005020;28;20198;-64
2023/10/30 03:18:11;;;;;;;3.30;1.43;;;13.20;99.90;;;;;;4991496;28;20313;-64
2023/10/30 03:20:37;;;;;;;2.77;1.13;;;13.10;99.90;;;;;;4990532;28;20431;-63
2023/10/30 03:23:03;;;;;;;4.50;1.40;;;13.10;99.90;;;;;;4989864;28;20458;-64
2023/10/30 03:25:28;;;;;;;7.13;2.20;;;13.20;99.90;;;;;;4991234;28;20187;-64
2023/10/30 03:27:54;;;;;;;4.73;1.47;;;13.20;99.90;;;;;;4990565;28;20716;-64
2023/10/30 03:30:20;;;;;;;8.53;2.13;;;13.10;99.90;;;;;;4991285;28;20235;-63
2023/10/30 03:32:45;;;;;;;5.67;1.43;;;13.10;99.90;;;;;;4991627;28;20183;-63
2023/10/30 03:35:11;;;;;;;4.23;1.80;;;13.10;99.90;;;;;;4989649;28;20187;-63
2023/10/30 03:37:37;;;;;;;5.80;1.30;;;13.10;99.90;;;;;;4991480;28;20271;-64
2023/10/30 03:40:03;;;;;;;3.47;1.40;;;13.10;99.90;;;;;;4990212;28;20568;-64
2023/10/30 03:42:28;;;;;;;5.77;1.77;;;13.10;99.90;;;;;;4991208;28;20196;-64
2023/10/30 03:44:54;;;;;;;6.47;1.70;;;13.10;99.90;;;;;;4989728;28;20442;-63
2023/10/30 03:47:20;;;;;;;7.83;1.83;;;13.10;99.90;;;;;;4991143;28;20196;-63
2023/10/30 03:49:46;;;;;;;5.53;1.60;;;13.00;99.90;;;;;;4991996;28;20192;-63
2023/10/30 03:52:11;;;;;;;8.07;2.43;;;13.00;99.90;;;;;;4990035;28;20212;-64
2023/10/30 03:54:37;;;;;;;5.00;2.07;;;13.00;99.90;;;;;;4989766;28;20216;-64
2023/10/30 03:57:03;;;;;;;2.37;1.40;;;12.90;99.90;;;;;;4990773;28;20214;-63
2023/10/30 03:59:29;;;;;;;6.37;1.93;;;12.90;99.90;;;;;;4990806;28;20183;-64
2023/10/30 04:01:54;;;;;;;7.77;1.87;;;12.90;99.90;;;;;;4990669;28;20182;-64
2023/10/30 04:04:20;;;;;;;8.23;1.70;;;13.00;99.90;;;;;;4989335;28;20175;-63
2023/10/30 04:06:46;;;;;;;5.33;1.27;;;13.00;99.90;;;;;;4991444;28;20199;-64
2023/10/30 04:09:11;;;;;;;3.67;1.47;;;13.00;99.90;;;;;;4990749;28;20202;-64
2023/10/30 04:11:37;;;;;;;8.20;1.70;;;13.00;99.90;;;;;;4990073;28;20585;-63
2023/10/30 04:14:03;;;;;;;3.83;1.40;;;13.10;99.90;;;;;;4988480;28;20183;-63
2023/10/30 04:16:29;;;;;;;7.07;1.47;;;13.00;99.90;;;;;;4980734;28;20949;-63
2023/10/30 04:18:54;;;;;;;3.43;1.33;;;13.00;99.90;;;;;;4990511;28;20183;-63
2023/10/30 04:21:20;;;;;;;10.57;2.03;;;13.10;99.90;;;;;;4989570;28;20492;-64
2023/10/30 04:23:46;;;;;;;7.20;1.40;;;13.00;99.90;;;;;;4989874;28;20291;-64
2023/10/30 04:26:12;;;;;;;5.27;1.33;;;13.10;99.90;;;;;;4990134;28;20188;-63
2023/10/30 04:28:37;;;;;;;6.30;1.50;;;13.10;99.90;;;;;;4990017;28;20203;-64
2023/10/30 04:31:06;;;;;;;4.37;1.70;;;13.10;99.90;;;;;;4989800;28;20231;-63
2023/10/30 04:33:32;;;;;;;5.90;1.87;;;13.10;99.90;;;;;;4988639;28;20249;-64
2023/10/30 04:36:04;;;;;;;2.80;1.17;;;13.10;99.90;;;;;;4990260;28;20430;-63
2023/10/30 04:38:31;;;;;;;4.17;1.30;;;13.00;99.90;;;;;;4990855;28;20432;-63
2023/10/30 04:40:57;;;;;;;8.63;1.50;;;13.00;99.90;;;;;;4989983;28;20454;-64
2023/10/30 04:43:23;;;;;;;5.90;1.57;;;13.00;99.90;;;;;;4987863;28;20434;-64
2023/10/30 04:45:49;;;;;;;3.23;1.43;;;13.00;99.90;;;;;;4989755;28;20417;-63
2023/10/30 04:48:15;;;;;;;5.80;1.67;;;13.00;99.90;;;;;;4989796;28;20434;-63
2023/10/30 04:50:40;;;;;;;4.80;2.03;;;13.00;99.90;;;;;;4990332;28;20524;-64
2023/10/30 04:53:06;;;;;;;2.13;1.20;;;13.00;99.90;;;;;;4987698;28;20268;-63
2023/10/30 04:55:32;;;;;;;3.40;1.40;;;13.00;99.90;;;;;;4989829;28;20187;-64
2023/10/30 04:57:57;;;;;;;4.17;2.07;;;13.00;99.90;;;;;;4989085;28;20194;-63
2023/10/30 05:00:23;;;;;;;5.17;1.37;;;13.00;99.90;;;;;;4989249;28;21595;-63
2023/10/30 05:02:50;;;;;;;8.20;1.80;;;13.00;99.90;;;;;;5003981;28;20223;-64
2023/10/30 05:05:15;;;;;;;2.97;1.27;;;13.00;99.90;;;;;;4988233;28;20183;-63
2023/10/30 05:07:44;;;;;;;4.23;1.33;;;13.00;99.90;;;;;;5002540;28;20472;-64
2023/10/30 05:10:10;;;;;;;6.83;1.37;;;13.00;99.90;;;;;;4987877;28;20196;-63
2023/10/30 05:12:35;;;;;;;4.20;1.10;;;13.00;99.90;;;;;;4987581;28;20593;-64
2023/10/30 05:15:01;;;;;;;5.70;1.60;;;13.00;99.90;;;;;;4983736;28;20497;-63
2023/10/30 05:17:27;;;;;;;4.60;1.30;;;13.00;99.90;;;;;;4987762;28;20615;-63
2023/10/30 05:19:53;;;;;;;6.47;1.70;;;12.90;99.90;;;;;;4988783;28;20183;-64
2023/10/30 05:22:18;;;;;;;3.03;1.23;;;12.90;99.90;;;;;;4987351;28;20437;-63
2023/10/30 05:24:44;;;;;;;8.57;1.50;;;12.90;99.90;;;;;;4987643;28;20278;-64
2023/10/30 05:27:10;;;;;;;4.33;1.63;;;12.90;99.90;;;;;;4988551;28;20182;-64
2023/10/30 05:29:35;;;;;;;2.90;1.30;;;12.90;99.90;;;;;;4988505;28;20190;-64
2023/10/30 05:32:06;;;;;;;5.40;1.30;;;12.90;99.90;;;;;;4989277;28;20240;-64
2023/10/30 05:34:32;;;;;;;2.40;1.37;;;12.90;99.90;;;;;;4988339;28;20636;-64
2023/10/30 05:36:58;;;;;;;4.87;1.23;;;12.90;99.90;;;;;;4988761;28;20489;-64
2023/10/30 05:39:24;;;;;;;7.03;1.40;;;12.90;99.90;;;;;;4988462;28;20426;-63
2023/10/30 05:41:50;;;;;;;2.73;1.40;;;12.90;99.90;;;;;;4989425;28;20434;-63
2023/10/30 05:44:17;;;;;;;5.70;2.07;;;12.90;99.90;;;;;;4987082;28;20443;-64
2023/10/30 05:46:43;;;;;;;6.07;1.60;;;12.90;99.90;;;;;;4988226;28;21026;-63
2023/10/30 05:49:08;;;;;;;5.13;1.37;;;13.00;99.90;;;;;;4988438;28;20540;-64
2023/10/30 05:51:34;;;;;;;3.50;1.23;;;12.90;99.90;;;;;;4988007;28;20251;-64
2023/10/30 05:54:00;;;;;;;3.70;1.40;;;12.90;99.90;;;;;;4987007;28;20541;-63
2023/10/30 05:56:25;;;;;;;4.20;1.53;;;13.00;99.90;;;;;;4987988;28;20988;-64
2023/10/30 05:58:51;;;;;;;6.03;1.67;;;13.00;99.90;;;;;;4989234;28;20229;-63
2023/10/30 06:01:16;;;;;;;6.77;1.60;;;13.00;99.90;;;;;;4988084;28;20234;-63
2023/10/30 06:03:42;;;;;;;4.43;1.27;;;12.90;99.90;;;;;;4988176;28;20976;-63
2023/10/30 06:06:08;;;;;;;3.63;1.57;;;12.90;99.90;;;;;;4988832;28;20186;-63
2023/10/30 06:08:34;;;;;;;3.90;1.33;;;12.90;99.90;;;;;;4988101;28;20266;-63
2023/10/30 06:11:00;;;;;;;4.90;1.20;;;12.90;99.90;;;;;;4987240;28;20477;-63
2023/10/30 06:13:25;;;;;;;2.10;1.13;;;12.90;99.90;;;;;;4985958;28;20726;-63
2023/10/30 06:15:54;;;;;;;4.37;1.20;;;12.80;99.90;;;;;;4978248;28;20199;-64
2023/10/30 06:18:21;;;;;;;4.03;1.73;;;12.80;99.90;;;;;;4980691;28;20204;-64
2023/10/30 06:20:46;;;;;;;4.20;1.47;;;12.80;99.90;;;;;;4985503;28;20430;-64
2023/10/30 06:23:12;;;;;;;7.67;1.63;;;12.80;99.90;;;;;;4985534;28;20429;-63
2023/10/30 06:25:38;;;;;;;4.17;2.20;;;12.80;99.90;;;;;;4985273;28;20187;-64
2023/10/30 06:28:04;;;;;;;3.17;1.93;;;12.70;99.90;;;;;;4985731;28;20233;-64
2023/10/30 06:30:29;;;;;;;5.00;2.07;;;12.70;99.90;;;;;;4986177;28;20227;-63
2023/10/30 06:32:55;;;;;;;3.77;1.50;;;12.70;99.90;;;;;;4986516;28;20668;-64
2023/10/30 06:35:21;;;;;;;3.93;1.33;;;12.70;99.90;;;;;;4986812;28;20195;-63
2023/10/30 06:37:46;;;;;;;3.00;1.50;;;12.70;99.90;;;;;;4986275;28;20192;-63
2023/10/30 06:40:12;;;;;;;2.90;1.17;;;12.70;99.90;;;;;;4987744;28;20267;-64
2023/10/30 06:42:38;;;;;;;9.33;2.10;;;12.70;99.90;;;;;;4991344;28;20195;-64
2023/10/30 06:45:04;;;;;;;8.67;1.70;;;12.70;99.90;;;;;;4989918;28;20209;-64
2023/10/30 06:47:29;;;;;;;5.63;1.60;;;12.70;99.90;;;;;;4990787;28;20211;-63
2023/10/30 06:49:55;;;;;;;5.23;1.70;;;12.70;99.90;;;;;;4991413;28;20514;-63
2023/10/30 06:52:21;;;;;;;4.07;1.40;;;12.60;99.90;;;;;;4992143;28;20215;-63
2023/10/30 06:54:46;;;;;;;6.90;2.37;;;12.60;99.90;;;;;;4989674;28;20192;-64
2023/10/30 06:57:12;;;;;;;4.00;1.57;;;12.60;99.90;;;;;;5007671;28;20179;-63
2023/10/30 06:59:38;;;;;;;4.97;1.37;;;12.60;99.90;;;;;;4991060;28;20699;-64
2023/10/30 07:02:03;;;;;;;3.90;1.53;;;12.60;99.90;;;;;;4991142;28;20278;-63
2023/10/30 07:04:30;;;;;;;4.13;1.40;;;12.50;99.90;;;;;;4990509;28;20190;-63
2023/10/30 07:06:55;;;;;;;5.80;1.97;;;12.50;99.90;;;;;;4991695;28;20222;-63
2023/10/30 07:09:21;;;;;;;5.27;1.67;;;12.50;99.90;;;;;;4992036;28;20497;-63
2023/10/30 07:11:47;;;;;;;3.60;1.70;;;12.50;99.90;;;;;;4990915;28;20262;-63
2023/10/30 07:14:13;;;;;;;5.90;1.50;;;12.60;99.90;;;;;;4991286;28;20206;-63
2023/10/30 07:16:40;;;;;;;6.57;2.20;;;12.50;99.90;;;;;;4989146;28;20588;-63
2023/10/30 07:19:06;;;;;;;5.73;2.10;;;12.60;99.90;;;;;;4991447;28;21241;-63
2023/10/30 07:21:31;;;;;;;3.40;1.80;;;12.60;99.90;;;;;;4991239;28;20425;-63
2023/10/30 07:23:57;;;;;;;4.97;1.80;;;12.60;99.90;;;;;;4990418;28;20199;-63
2023/10/30 07:26:24;;;;;;;9.03;2.13;;;12.60;99.90;;;;;;4991469;28;20183;-63
2023/10/30 07:28:50;;;;;;;4.83;1.80;;;12.60;99.90;;;;;;4990019;28;20190;-63
2023/10/30 07:31:18;;;;;;;8.37;2.53;;;12.60;99.90;;;;;;4991563;28;20524;-63
2023/10/30 07:33:45;;;;;;;4.17;1.80;;;12.50;99.90;;;;;;4990294;28;20433;-63
2023/10/30 07:36:11;;;;;;;3.87;1.70;;;12.60;99.90;;;;;;4991157;28;20435;-64
2023/10/30 07:38:37;;;;;;;6.90;1.57;;;12.60;99.90;;;;;;4991509;28;20822;-63
2023/10/30 07:41:03;;;;;;;6.50;1.90;;;12.70;99.90;;;;;;4991133;28;20211;-63
2023/10/30 07:43:29;;;;;;;2.60;1.90;;;12.80;99.90;;;;;;4989060;28;20202;-64
2023/10/30 07:45:55;;;;;;;4.77;1.53;;;12.80;99.90;;;;;;4990452;28;20411;-64
2023/10/30 07:48:21;;;;;;;6.10;2.23;;;12.90;99.90;;;;;;4981458;28;20426;-63
2023/10/30 07:50:47;;;;;;;3.50;1.70;;;13.00;99.90;;;;;;4990249;28;20219;-63
2023/10/30 07:53:15;;;;;;;4.80;1.87;;;13.10;99.90;;;;;;4990005;28;20192;-64
2023/10/30 07:55:41;;;;;;;4.40;1.93;;;13.20;99.90;;;;;;4989726;28;20453;-63
2023/10/30 07:58:07;;;;;;;5.63;1.37;;;13.30;99.90;;;;;;4990991;28;20856;-63
2023/10/30 08:00:33;;;;;;;5.93;2.03;;;13.40;99.90;;;;;;4989255;28;20445;-63
2023/10/30 08:03:00;;;;;;;4.90;1.70;;;13.40;99.90;;;;;;4988637;28;20187;-63
2023/10/30 08:05:26;;;;;;;4.87;1.60;;;13.50;99.90;;;;;;4990292;28;21035;-63
2023/10/30 08:07:52;;;;;;;3.23;1.73;;;13.60;99.90;;;;;;4990337;28;20426;-64
2023/10/30 08:10:18;;;;;;;4.30;1.50;;;13.70;99.90;;;;;;4990853;28;20955;-65
2023/10/30 08:12:43;;;;;;;4.93;2.00;;;13.70;99.90;;;;;;4988259;28;20199;-64
2023/10/30 08:15:09;;;;;;;3.43;1.50;;;13.70;99.90;;;;;;4988589;28;20433;-65
2023/10/30 08:17:36;;;;;;;3.83;1.60;;;13.70;99.90;;;;;;4990169;28;20238;-65
2023/10/30 08:20:03;;;;;;;6.00;1.90;;;13.80;99.90;;;;;;4990381;28;20427;-65
2023/10/30 08:22:29;;;;;;;5.87;1.67;;;14.00;99.90;;;;;;4989981;28;20423;-65
2023/10/30 08:24:55;;;;;;;3.60;1.87;;;14.20;99.90;;;;;;4988396;28;20427;-65
2023/10/30 08:27:21;;;;;;;3.67;1.70;;;14.50;99.90;;;;;;4990270;28;20778;-65
2023/10/30 08:29:46;;;;;;;3.80;1.70;;;14.70;99.90;;;;;;4989703;28;20214;-64
2023/10/30 08:32:13;;;;;;;8.03;2.23;;;14.80;99.90;;;;;;4990477;28;20206;-65
2023/10/30 08:34:38;;;;;;;3.40;1.90;;;15.00;99.90;;;;;;4989073;28;20187;-64
2023/10/30 08:37:04;;;;;;;4.33;1.90;;;15.10;99.90;;;;;;4989251;28;20438;-65
2023/10/30 08:39:30;;;;;;;2.90;1.73;;;15.20;99.90;;;;;;4990128;28;20298;-65
2023/10/30 08:41:55;;;;;;;3.87;1.73;;;15.40;99.90;;;;;;4989191;28;20314;-65
2023/10/30 08:44:21;;;;;;;7.27;3.00;;;15.40;99.90;;;;;;4988992;28;20210;-65
2023/10/30 08:46:47;;;;;;;2.73;1.90;;;15.50;99.90;;;;;;4989252;28;20179;-65
2023/10/30 08:49:12;;;;;;;4.00;2.73;;;15.60;99.90;;;;;;4990068;28;20866;-65
2023/10/30 08:51:42;;;;;;;6.30;2.10;;;15.70;99.90;;;;;;4988295;28;20231;-65
2023/10/30 08:54:08;;;;;;;4.90;1.80;;;15.80;99.90;;;;;;4987843;28;20188;-65
2023/10/30 08:56:34;;;;;;;5.13;1.83;;;15.80;99.90;;;;;;4989679;28;20532;-65
2023/10/30 08:59:00;;;;;;;5.00;1.90;;;15.90;99.90;;;;;;4988544;28;20441;-64
2023/10/30 09:01:26;;;;;;;3.87;2.03;;;15.90;99.90;;;;;;4990190;28;20428;-65
2023/10/30 09:03:52;;;;;;;2.40;1.80;;;15.90;99.90;;;;;;4987496;28;20977;-64
2023/10/30 09:06:19;;;;;;;4.67;1.73;;;16.00;99.90;;;;;;4989410;28;21049;-65
2023/10/30 09:08:44;;;;;;;3.00;1.57;;;16.00;99.90;;;;;;4990209;28;21023;-65
2023/10/30 09:11:10;;;;;;;4.50;2.07;;;15.90;99.90;;;;;;4988234;28;20613;-65
2023/10/30 09:13:36;;;;;;;4.10;1.77;;;15.90;99.90;;;;;;4989128;28;20198;-65
2023/10/30 09:16:02;;;;;;;2.90;1.70;;;15.80;99.90;;;;;;4988276;28;20816;-65
2023/10/30 09:18:28;;;;;;;4.83;2.63;;;15.70;99.90;;;;;;4989503;28;20188;-64
2023/10/30 09:20:53;;;;;;;3.27;2.10;;;15.60;99.90;;;;;;4989686;28;21215;-64
2023/10/30 09:23:19;;;;;;;2.87;2.13;;;15.60;99.90;;;;;;4988328;28;20188;-64
2023/10/30 09:25:45;;;;;;;4.00;2.03;;;15.60;99.90;;;;;;4988858;28;20219;-65
2023/10/30 09:28:11;;;;;;;4.17;1.50;;;15.50;99.90;;;;;;4988441;28;20768;-64
2023/10/30 09:30:37;;;;;;;4.40;1.83;;;15.50;99.90;;;;;;4989566;28;20211;-64
2023/10/30 09:33:03;;;;;;;4.00;1.63;;;15.40;99.90;;;;;;4988472;28;20472;-64
2023/10/30 09:35:30;;;;;;;2.47;1.57;;;15.40;99.90;;;;;;4989131;28;20194;-64
2023/10/30 09:37:58;;;;;;;4.53;2.70;;;15.50;99.90;;;;;;4988595;28;20823;-64
2023/10/30 09:40:26;;;;;;;3.40;1.60;;;15.50;99.90;;;;;;4989549;28;20430;-64
2023/10/30 09:42:52;;;;;;;2.30;1.37;;;15.50;99.90;;;;;;4988347;28;20504;-64
2023/10/30 09:45:26;;;;;;;3.40;1.70;;;15.50;99.90;;;;;;4987502;28;20812;-64
2023/10/30 09:47:55;;;;;;;4.93;1.90;;;15.40;99.90;;;;;;4989326;28;20434;-64
2023/10/30 09:50:22;;;;;;;3.00;1.20;;;15.50;99.90;;;;;;4988350;28;20434;-64
2023/10/30 09:52:52;;;;;;;2.60;1.60;;;15.50;99.90;;;;;;4988463;28;20485;-64
2023/10/30 09:55:19;;;;;;;2.33;1.37;;;15.50;99.90;;;;;;4987746;28;20427;-65
2023/10/30 09:57:49;;;;;;;4.03;1.50;;;15.50;99.90;;;;;;4989151;28;21555;-64
2023/10/30 10:00:15;;;;;;;2.17;1.20;;;15.50;99.90;;;;;;4988359;28;20945;-64
2023/10/30 10:02:42;;;;;;;1.93;1.30;;;15.50;99.90;;;;;;4988390;28;20441;-64
2023/10/30 10:05:09;;;;;;;2.90;1.23;;;15.40;99.90;;;;;;4987864;28;20969;-64
2023/10/30 10:07:35;;;;;;;2.13;1.30;;;15.40;99.90;;;;;;4989281;28;20448;-64
2023/10/30 10:10:03;;;;;;;2.70;1.30;;;15.50;99.90;;;;;;4988691;28;20487;-64
2023/10/30 10:12:30;;;;;;;2.50;1.30;;;15.60;99.90;;;;;;4988259;28;20482;-64
2023/10/30 10:14:56;;;;;;;2.03;1.10;;;15.70;99.90;;;;;;4987207;28;20429;-64
2023/10/30 10:17:22;;;;;;;4.07;1.40;;;15.70;99.90;;;;;;4991564;28;21387;-64
2023/10/30 10:19:48;;;;;;;2.93;1.10;;;15.70;99.90;;;;;;4993075;28;20437;-64
2023/10/30 10:22:34;;;;;;;1.43;0.87;;;15.80;99.90;;;;;;4992319;28;20434;-65
2023/10/30 10:25:00;;;;;;;1.63;1.07;;;15.90;99.90;;;;;;4991720;28;20191;-64
2023/10/30 10:27:27;;;;;;;2.70;1.30;;;15.90;99.90;;;;;;4992371;28;20550;-64
2023/10/30 10:29:54;;;;;;;3.17;1.00;;;15.90;99.90;;;;;;4992865;28;21086;-64
2023/10/30 10:32:27;;;;;;;3.63;1.00;;;15.90;99.90;;;;;;4991306;28;20482;-64
2023/10/30 10:34:58;;;;;;;6.40;1.57;;;15.90;99.90;;;;;;4991396;28;20517;-64
2023/10/30 10:37:24;;;;;;;1.40;1.03;;;16.00;99.90;;;;;;4991985;28;20509;-64
2023/10/30 10:39:51;;;;;;;1.63;1.03;;;16.00;99.90;;;;;;4992363;28;20432;-64
2023/10/30 10:42:19;;;;;;;4.43;1.00;;;16.00;99.90;;;;;;4991730;28;20995;-64
2023/10/30 10:44:46;;;;;;;1.37;1.13;;;16.10;99.90;;;;;;4991806;28;20434;-64
2023/10/30 10:47:12;;;;;;;2.07;1.17;;;16.10;99.90;;;;;;4991514;28;20452;-64
2023/10/30 10:49:38;;;;;;;1.10;0.97;;;16.00;99.90;;;;;;5007733;28;20435;-64
2023/10/30 10:52:09;;;;;;;2.37;1.20;;;16.00;99.90;;;;;;4992256;28;20532;-64
2023/10/30 10:54:57;;;;;;;1.97;0.97;;;16.00;99.90;;;;;;4991445;28;20492;-64
2023/10/30 10:57:24;;;;;;;3.87;1.20;;;16.00;99.90;;;;;;4990791;28;20426;-64
2023/10/30 11:00:00;;;;;;;2.20;1.10;;;16.00;99.90;;;;;;4991622;28;20435;-64
2023/10/30 11:02:31;;;;;;;1.50;1.07;;;16.00;99.90;;;;;;4991535;28;20461;-64
2023/10/30 11:04:58;;;;;;;2.40;1.50;;;16.00;99.90;;;;;;4991121;28;21255;-64
2023/10/30 11:07:45;;;;;;;3.10;1.40;;;16.00;99.90;;;;;;4992297;28;20426;-64
2023/10/30 11:10:23;;;;;;;3.17;1.10;;;15.90;99.90;;;;;;4992779;28;20504;-64
2023/10/30 11:13:16;;;;;;;1.10;1.00;;;15.90;99.90;;;;;;4992025;28;20446;-64
2023/10/30 11:15:48;;;;;;;1.93;1.10;;;15.90;99.90;;;;;;4991147;28;20462;-64
2023/10/30 11:18:15;;;;;;;4.63;2.10;;;15.90;99.90;;;;;;4993142;28;20828;-64
2023/10/30 11:20:42;;;;;;;3.00;1.07;;;15.90;99.90;;;;;;4992417;28;20489;-64
2023/10/30 11:23:09;;;;;;;1.83;1.13;;;15.90;99.90;;;;;;4991161;28;20431;-65
2023/10/30 11:25:44;;;;;;;1.27;1.13;;;15.90;99.90;;;;;;4991997;28;20469;-64
2023/10/30 11:28:10;;;;;;;1.37;1.03;;;15.90;99.90;;;;;;4992026;28;20434;-64
2023/10/30 11:30:43;;;;;;;2.50;1.50;;;16.00;99.90;;;;;;4991850;28;21542;-64
2023/10/30 11:33:19;;;;;;;1.77;1.50;;;16.00;99.90;;;;;;4991854;28;20210;-64
2023/10/30 11:35:46;;;;;;;1.47;1.00;;;16.20;99.90;;;;;;4992152;28;20441;-64
2023/10/30 11:38:16;;;;;;;0.93;0.73;;;16.40;99.90;;;;;;4993006;28;20423;-64
2023/10/30 11:40:42;;;;;;;2.50;1.00;;;16.50;99.90;;;;;;4991055;28;20422;-64
2023/10/30 11:43:08;;;;;;;3.70;0.77;;;16.70;99.90;;;;;;4991296;28;20936;-64
2023/10/30 11:45:39;;;;;;;0.97;0.60;;;16.70;99.90;;;;;;4991314;28;20447;-64
2023/10/30 11:48:06;;;;;;;1.07;0.73;;;16.70;99.90;;;;;;4992256;28;20486;-64
2023/10/30 11:50:47;;;;;;;2.83;0.73;;;16.70;99.90;;;;;;4991494;28;20562;-64
2023/10/30 11:53:19;;;;;;;0.57;0.40;;;16.60;99.90;;;;;;4989351;28;20434;-64
2023/10/30 11:55:47;;;;;;;0.90;0.50;;;16.60;99.90;;;;;;4991449;28;20422;-64
2023/10/30 11:58:13;;;;;;;1.30;0.60;;;16.50;99.90;;;;;;4991315;28;20965;-64
2023/10/30 12:00:47;;;;;;;0.93;0.70;;;16.50;99.90;;;;;;4990965;28;21211;-64
2023/10/30 12:03:14;;;;;;;2.30;0.53;;;16.40;99.90;;;;;;4990321;28;20435;-66
2023/10/30 12:05:39;;;;;;;0.87;0.50;;;16.40;99.90;;;;;;4991266;28;20426;-64
2023/10/30 12:08:05;;;;;;;1.67;0.60;;;16.30;99.90;;;;;;4992329;28;21154;-64
2023/10/30 12:10:32;;;;;;;0.90;0.57;;;16.20;99.90;;;;;;4990907;28;20187;-64
2023/10/30 12:12:58;;;;;;;1.40;0.53;;;16.20;99.90;;;;;;4991629;28;20420;-64
2023/10/30 12:15:25;;;;;;;1.90;0.50;;;16.10;99.90;;;;;;4990948;28;20457;-64
2023/10/30 12:17:51;;;;;;;0.90;0.57;;;16.10;99.90;;;;;;4991717;28;20222;-64
2023/10/30 12:20:17;;;;;;;1.30;0.40;;;16.00;99.90;;;;;;4991671;28;20505;-64
2023/10/30 12:22:46;;;;;;;1.73;0.50;;;16.00;99.90;;;;;;4990082;28;20187;-64
2023/10/30 12:25:16;;;;;;;1.30;0.70;;;15.90;99.90;;;;;;4990133;28;20184;-64
2023/10/30 12:27:43;;;;;;;0.90;0.50;;;15.90;99.90;;;;;;4989625;28;20517;-64
2023/10/30 12:30:18;;;;;;;1.30;0.50;;;15.90;99.90;;;;;;4991426;28;20429;-64
2023/10/30 12:32:54;;;;;;;3.07;0.70;;;15.90;99.90;;;;;;4989359;28;20859;-64
2023/10/30 12:35:19;;;;;;;1.73;0.63;;;15.90;99.90;;;;;;4990653;28;20840;-64
2023/10/30 12:37:45;;;;;;;1.73;0.50;;;15.90;99.90;;;;;;4990463;28;20422;-64
2023/10/30 12:40:12;;;;;;;0.90;0.50;;;15.90;99.90;;;;;;4990853;28;20197;-64
2023/10/30 12:42:40;;;;;;;0.97;0.50;;;15.80;99.90;;;;;;4989526;28;20913;-64